createdAt,value
2023-01-06T00:03:53.869Z,33.80
2023-01-06T00:08:58.253Z,34.00
2023-01-06T00:14:03.302Z,34.00
2023-01-06T00:19:05.532Z,34.00
2023-01-06T00:24:08.585Z,34.00
2023-01-06T00:29:11.288Z,34.00
2023-01-06T00:34:13.256Z,33.80
2023-01-06T00:39:16.072Z,33.90
2023-01-06T00:44:18.408Z,34.00
2023-01-06T00:49:21.944Z,34.00
2023-01-06T00:54:24.258Z,34.20
2023-01-06T00:59:27.127Z,34.10
2023-01-06T01:04:30.106Z,34.30
2023-01-06T01:09:32.606Z,34.10
2023-01-06T01:14:37.752Z,34.30
2023-01-06T01:19:41.532Z,34.60
2023-01-06T01:24:43.745Z,34.50
2023-01-06T01:29:46.486Z,34.60
2023-01-06T01:34:48.802Z,34.50
2023-01-06T01:45:21.863Z,34.60
2023-01-06T01:50:44.568Z,34.50
2023-01-06T01:55:50.589Z,34.50
2023-01-06T02:00:53.445Z,34.60
2023-01-06T02:06:01.022Z,34.60
2023-01-06T02:16:43.959Z,34.60
2023-01-06T02:22:21.090Z,34.60
2023-01-06T02:27:51.154Z,34.60
2023-01-06T02:38:38.441Z,34.50
2023-01-06T02:44:10.087Z,34.20
2023-01-06T02:49:16.849Z,34.60
2023-01-06T02:54:30.308Z,34.60
2023-01-06T02:59:39.741Z,34.00
2023-01-06T03:04:46.933Z,34.50
2023-01-06T03:09:52.532Z,34.40
2023-01-06T03:14:56.328Z,34.40
2023-01-06T03:19:59.141Z,34.20
2023-01-06T03:25:02.648Z,34.10
2023-01-06T03:30:09.546Z,34.10
2023-01-06T03:35:32.078Z,33.80
2023-01-06T03:41:02.320Z,33.90
2023-01-06T03:46:08.142Z,33.90
2023-01-06T03:51:39.008Z,33.80
2023-01-06T03:56:51.281Z,33.90
2023-01-06T04:01:53.672Z,34.00
2023-01-06T04:06:56.657Z,33.90
2023-01-06T04:17:20.986Z,33.80
2023-01-06T04:22:23.765Z,33.80
2023-01-06T04:27:26.022Z,33.90
2023-01-06T04:32:28.504Z,34.70
2023-01-06T04:37:31.259Z,33.80
2023-01-06T04:42:53.734Z,33.80
2023-01-06T04:47:55.888Z,33.90
2023-01-06T04:52:58.060Z,33.90
2023-01-06T04:58:00.136Z,34.00
2023-01-06T05:03:02.510Z,34.00
2023-01-06T05:08:07.051Z,34.00
2023-01-06T05:13:09.194Z,34.00
2023-01-06T05:18:11.298Z,34.00
2023-01-06T05:23:13.428Z,34.00
2023-01-06T05:28:15.553Z,34.00
2023-01-06T05:33:17.983Z,34.00
2023-01-06T05:38:20.309Z,34.00
2023-01-06T05:43:22.875Z,34.10
2023-01-06T05:48:27.755Z,34.00
2023-01-06T05:53:34.812Z,34.20
2023-01-06T05:58:40.395Z,34.20
2023-01-06T06:03:43.060Z,34.20
2023-01-06T06:08:45.227Z,34.10
2023-01-06T06:13:54.149Z,34.00
2023-01-06T06:18:59.496Z,34.00
2023-01-06T06:24:01.798Z,34.20
2023-01-06T06:29:07.760Z,34.20
2023-01-06T06:34:12.536Z,34.20
2023-01-06T06:39:14.851Z,34.20
2023-01-06T06:44:17.135Z,34.30
2023-01-06T06:49:19.500Z,33.20
2023-01-06T06:54:21.675Z,32.10
2023-01-06T06:59:23.989Z,32.00
2023-01-06T07:04:26.105Z,32.30
2023-01-06T07:09:28.319Z,32.10
2023-01-06T07:14:30.585Z,31.40
2023-01-06T07:19:35.495Z,30.70
2023-01-06T07:24:37.863Z,31.40
2023-01-06T07:29:40.039Z,31.30
2023-01-06T07:34:42.146Z,31.20
2023-01-06T07:39:44.274Z,31.10
2023-01-06T07:44:46.450Z,30.60
2023-01-06T07:49:48.803Z,30.20
2023-01-06T07:54:51.100Z,29.80
2023-01-06T07:59:53.372Z,29.70
2023-01-06T08:04:55.549Z,29.30
2023-01-06T08:09:57.774Z,29.30
2023-01-06T08:14:59.930Z,29.40
2023-01-06T08:20:02.452Z,28.90
2023-01-06T08:25:07.298Z,28.80
2023-01-06T08:30:10.134Z,29.00
2023-01-06T08:35:12.218Z,28.90
2023-01-06T08:40:14.663Z,28.80
2023-01-06T08:45:17.168Z,28.60
2023-01-06T08:50:19.403Z,28.70
2023-01-06T08:55:21.749Z,28.70
2023-01-06T09:00:24.043Z,28.70
2023-01-06T09:05:26.274Z,28.90
2023-01-06T09:10:28.595Z,28.70
2023-01-06T09:15:30.860Z,28.80
2023-01-06T09:20:35.777Z,28.70
2023-01-06T09:25:38.071Z,28.50
2023-01-06T09:30:40.863Z,28.50
2023-01-06T09:35:43.502Z,28.50
2023-01-06T09:41:17.825Z,28.50
2023-01-06T09:46:30.603Z,28.50
2023-01-06T09:51:35.371Z,28.60
2023-01-06T09:56:40.271Z,28.50
2023-01-06T10:01:47.364Z,27.10
2023-01-06T10:07:19.896Z,27.50
2023-01-06T10:12:32.810Z,27.50
2023-01-06T10:18:02.690Z,27.00
2023-01-06T10:23:38.623Z,26.80
2023-01-06T10:28:48.305Z,26.90
2023-01-06T10:33:53.364Z,26.90
2023-01-06T10:38:56.755Z,26.80
2023-01-06T10:43:59.086Z,26.40
2023-01-06T10:49:02.705Z,26.10
2023-01-06T10:54:09.535Z,25.50
2023-01-06T10:59:14.039Z,24.70
2023-01-06T11:04:19.662Z,24.80
2023-01-06T11:09:36.334Z,24.70
2023-01-06T11:14:40.063Z,25.10
2023-01-06T11:19:46.796Z,25.10
2023-01-06T11:24:53.337Z,25.10
2023-01-06T11:29:55.466Z,24.90
2023-01-06T11:35:03.776Z,24.90
2023-01-06T11:40:21.633Z,25.30
2023-01-06T11:45:29.802Z,25.10
2023-01-06T11:50:32.495Z,24.80
2023-01-06T11:55:34.646Z,25.00
2023-01-06T12:00:53.485Z,24.70
2023-01-06T12:06:13.788Z,24.20
2023-01-06T12:11:27.704Z,23.90
2023-01-06T12:16:39.148Z,24.70
2023-01-06T12:21:42.748Z,24.30
2023-01-06T12:26:45.700Z,23.70
2023-01-06T12:31:57.238Z,23.00
2023-01-06T12:37:22.668Z,23.40
2023-01-06T12:42:51.413Z,23.30
2023-01-06T12:47:56.089Z,23.40
2023-01-06T12:53:04.752Z,23.40
2023-01-06T12:58:27.561Z,22.60
2023-01-06T13:04:01.547Z,23.00
2023-01-06T13:09:26.453Z,23.00
2023-01-06T13:14:52.817Z,22.90
2023-01-06T13:19:57.913Z,23.10
2023-01-06T13:25:08.903Z,23.00
2023-01-06T13:30:33.083Z,23.10
2023-01-06T13:35:58.747Z,23.10
2023-01-06T13:46:10.082Z,23.00
2023-01-06T13:51:15.949Z,22.90
2023-01-06T14:01:20.865Z,23.10
2023-01-06T14:06:23.136Z,23.10
2023-01-06T14:11:34.334Z,23.10
2023-01-06T14:16:47.023Z,23.20
2023-01-06T14:21:52.695Z,23.20
2023-01-06T14:27:06.102Z,23.20
2023-01-06T14:32:28.146Z,23.20
2023-01-06T14:37:50.592Z,23.10
2023-01-06T14:42:55.108Z,23.20
2023-01-06T14:48:05.582Z,23.10
2023-01-06T14:53:18.775Z,23.10
2023-01-06T14:58:36.712Z,23.20
2023-01-06T15:03:40.294Z,23.00
2023-01-06T15:08:42.428Z,23.00
2023-01-06T15:13:45.205Z,23.00
2023-01-06T15:23:53.036Z,23.50
2023-01-06T15:29:05.822Z,23.50
2023-01-06T15:34:35.275Z,23.90
2023-01-06T15:39:39.723Z,24.20
2023-01-06T15:44:53.308Z,24.10
2023-01-06T15:50:02.393Z,24.60
2023-01-06T15:55:19.442Z,24.40
2023-01-06T16:00:25.143Z,24.70
2023-01-06T16:05:43.100Z,25.40
2023-01-06T16:10:48.647Z,25.00
2023-01-06T16:16:15.554Z,25.30
2023-01-06T16:21:30.005Z,25.40
2023-01-06T16:26:43.494Z,25.40
2023-01-06T16:31:53.065Z,25.60
2023-01-06T16:36:57.972Z,25.50
2023-01-06T16:42:00.122Z,25.60
2023-01-06T16:47:02.909Z,25.40
2023-01-06T16:52:06.180Z,25.50
2023-01-06T16:57:11.226Z,25.40
2023-01-06T17:02:16.015Z,25.60
2023-01-06T17:07:18.719Z,25.70
2023-01-06T17:12:39.463Z,25.50
2023-01-06T17:17:41.767Z,25.70
2023-01-06T17:22:43.945Z,25.70
2023-01-06T17:27:48.291Z,25.70
2023-01-06T17:32:51.343Z,25.60
2023-01-06T17:37:54.792Z,25.50
2023-01-06T17:43:14.637Z,25.80
2023-01-06T17:48:16.888Z,25.70
2023-01-06T17:53:49.725Z,25.90
2023-01-06T17:58:51.966Z,26.00
2023-01-06T18:03:58.117Z,26.40
2023-01-06T18:14:33.031Z,26.10
2023-01-06T18:19:37.429Z,26.20
2023-01-06T18:24:40.941Z,26.30
2023-01-06T18:29:44.643Z,26.60
2023-01-06T18:34:49.036Z,26.40
2023-01-06T18:39:53.516Z,27.00
2023-01-06T18:45:09.352Z,26.80
2023-01-06T18:50:20.312Z,27.30
2023-01-06T18:55:31.005Z,27.40
2023-01-06T19:00:47.804Z,26.90
2023-01-06T19:05:54.055Z,26.90
2023-01-06T19:10:56.251Z,26.60
2023-01-06T19:16:07.688Z,27.00
2023-01-06T19:21:14.808Z,26.90
2023-01-06T19:26:35.353Z,26.90
2023-01-06T19:31:39.247Z,27.00
2023-01-06T19:36:49.175Z,27.00
2023-01-06T19:41:58.140Z,27.00
2023-01-06T19:47:10.869Z,27.20
2023-01-06T19:52:34.432Z,27.30
2023-01-06T19:57:39.990Z,27.40
2023-01-06T20:02:45.672Z,27.30
2023-01-06T20:12:51.412Z,27.30
2023-01-06T20:17:53.582Z,27.30
2023-01-06T20:22:55.697Z,27.20
2023-01-06T20:27:57.921Z,27.10
2023-01-06T20:33:00.065Z,27.10
2023-01-06T20:38:02.372Z,27.10
2023-01-06T20:43:07.142Z,27.20
2023-01-06T20:48:09.285Z,27.30
2023-01-06T20:53:11.515Z,27.50
2023-01-06T20:58:13.643Z,27.90
2023-01-06T21:03:15.842Z,27.60
2023-01-06T21:08:18.360Z,27.70
2023-01-06T21:13:24.011Z,27.90
2023-01-06T21:18:26.368Z,27.90
2023-01-06T21:23:28.510Z,27.90
2023-01-06T21:28:30.602Z,27.90
2023-01-06T21:33:34.855Z,27.90
2023-01-06T21:38:37.473Z,28.00
2023-01-06T21:43:39.549Z,27.90
2023-01-06T21:48:41.718Z,27.90
2023-01-06T21:53:44.007Z,27.90
2023-01-06T21:58:46.173Z,27.80
2023-01-06T22:03:48.529Z,27.80
2023-01-06T22:08:52.688Z,27.80
2023-01-06T22:13:55.130Z,27.80
2023-01-06T22:18:58.233Z,27.90
2023-01-06T22:24:00.526Z,27.90
2023-01-06T22:29:03.070Z,27.90
2023-01-06T22:34:07.297Z,27.90
2023-01-06T22:39:09.421Z,27.80
2023-01-06T22:44:11.562Z,27.80
2023-01-06T22:49:14.652Z,27.90
2023-01-06T22:54:16.909Z,27.90
2023-01-06T22:59:19.015Z,27.90
2023-01-06T23:04:21.109Z,27.90
2023-01-06T23:09:23.232Z,27.80
2023-01-06T23:14:25.439Z,27.80
2023-01-06T23:19:27.589Z,27.80
2023-01-06T23:24:29.708Z,27.90
2023-01-06T23:29:32.792Z,28.00
2023-01-06T23:34:35.017Z,27.80
2023-01-06T23:39:37.181Z,27.80
2023-01-06T23:44:39.286Z,27.90
2023-01-06T23:49:41.440Z,28.00
2023-01-06T23:54:43.599Z,27.80
2023-01-06T23:59:45.779Z,29.00
